Terminal Aerodrome Forecast
Issued by NWS

Home | Current Version | Previous Version | Graphics & Text | Print | Product List | Glossary On
Versions: 1 2 3 4 5 6 7 8 9 10 11 12 13 14 15 16 17 18 19 20 21 22 23 24 25 26 27 28 29 30
527
FTUS43 KLOT 220107 AAA
TAFDPA
TAF AMD
KDPA 220107Z 2201/2224 23005KT P6SM FEW250
     FM220200 00000KT 3SM BR OVC006
      TEMPO 2202/2204 1/2SM FG VV002
     FM220800 00000KT 1SM BR OVC004
     FM221700 03007KT 3SM BR OVC006
     FM221900 01010KT P6SM OVC015=

USA.gov is the U.S. government's official web portal to all federal, state and local government web resources and services.